createdAt,value
2022-12-19T00:01:38.088Z,100648.84
2022-12-19T00:04:08.238Z,100640.41
2022-12-19T00:06:36.937Z,100632.44
2022-12-19T00:09:04.214Z,100601.03
2022-12-19T00:11:31.458Z,100581.00
2022-12-19T00:13:59.378Z,100609.41
2022-12-19T00:16:29.867Z,100604.63
2022-12-19T00:18:59.200Z,100618.69
2022-12-19T00:21:28.868Z,100605.66
2022-12-19T00:23:56.044Z,100575.81
2022-12-19T00:26:31.455Z,100591.44
2022-12-19T00:29:00.650Z,100607.50
2022-12-19T00:31:30.932Z,100623.72
2022-12-19T00:33:57.919Z,100618.97
2022-12-19T00:36:27.731Z,100641.38
2022-12-19T00:38:57.562Z,100588.34
2022-12-19T00:41:25.698Z,100620.94
2022-12-19T00:44:06.047Z,100611.94
2022-12-19T00:46:35.481Z,100590.00
2022-12-19T00:49:02.784Z,100549.66
2022-12-19T00:51:31.932Z,100573.53
2022-12-19T00:53:59.225Z,100559.59
2022-12-19T00:56:29.048Z,100574.66
2022-12-19T00:58:56.331Z,100573.56
2022-12-19T01:01:43.553Z,100625.94
2022-12-19T01:04:30.795Z,100584.28
2022-12-19T01:07:01.944Z,100573.31
2022-12-19T01:09:30.365Z,100584.28
2022-12-19T01:12:15.961Z,100573.44
2022-12-19T01:14:42.689Z,100557.25
2022-12-19T01:17:09.373Z,100571.19
2022-12-19T01:19:41.944Z,100565.63
2022-12-19T01:22:11.308Z,100581.88
2022-12-19T01:24:38.203Z,100589.63
2022-12-19T01:27:05.539Z,100610.59
2022-12-19T01:29:33.495Z,100575.41
2022-12-19T01:32:02.437Z,100576.47
2022-12-19T01:34:29.190Z,100601.03
2022-12-19T01:36:56.132Z,100573.19
2022-12-19T01:39:23.048Z,100584.44
2022-12-19T01:41:51.880Z,100572.06
2022-12-19T01:44:18.665Z,100598.31
2022-12-19T01:46:50.327Z,100575.03
2022-12-19T01:49:22.970Z,100564.63
2022-12-19T01:51:54.131Z,100527.75
2022-12-19T01:54:27.067Z,100550.44
2022-12-19T01:56:57.789Z,100546.88
2022-12-19T01:59:28.417Z,100554.56
2022-12-19T02:02:01.890Z,100579.28
2022-12-19T02:04:32.563Z,100551.16
2022-12-19T02:07:03.551Z,100600.22
2022-12-19T02:09:42.496Z,100603.78
2022-12-19T02:12:09.197Z,100628.31
2022-12-19T02:14:35.983Z,100583.19
2022-12-19T02:17:19.807Z,100582.03
2022-12-19T02:20:10.508Z,100614.63
2022-12-19T02:23:25.218Z,100579.38
2022-12-19T02:26:22.960Z,100560.44
2022-12-19T02:28:55.686Z,100599.31
2022-12-19T02:31:32.656Z,100572.88
2022-12-19T02:34:31.491Z,100562.19
2022-12-19T02:37:05.678Z,100564.31
2022-12-19T02:39:36.664Z,100566.44
2022-12-19T02:42:07.701Z,100540.34
2022-12-19T02:44:48.821Z,100564.97
2022-12-19T02:47:16.707Z,100594.41
2022-12-19T02:49:43.442Z,100590.00
2022-12-19T02:52:12.423Z,100536.09
2022-12-19T02:54:42.291Z,100605.19
2022-12-19T02:57:29.311Z,100583.69
2022-12-19T02:59:59.279Z,100578.97
2022-12-19T03:02:36.267Z,100611.97
2022-12-19T03:05:20.886Z,100630.03
2022-12-19T03:08:02.051Z,100615.63
2022-12-19T03:10:30.414Z,100605.31
2022-12-19T03:13:11.713Z,100575.84
2022-12-19T03:15:40.828Z,100562.41
2022-12-19T03:18:08.510Z,100552.59
2022-12-19T03:20:53.028Z,100588.56
2022-12-19T03:23:20.694Z,100596.44
2022-12-19T03:25:56.453Z,100600.97
2022-12-19T03:28:48.246Z,100581.09
2022-12-19T03:31:19.726Z,100573.91
2022-12-19T03:33:51.013Z,100575.19
2022-12-19T03:36:24.603Z,100553.94
2022-12-19T03:38:54.076Z,100582.78
2022-12-19T03:41:43.088Z,100536.81
2022-12-19T03:44:14.085Z,100573.41
2022-12-19T03:46:47.418Z,100589.13
2022-12-19T03:49:14.583Z,100583.91
2022-12-19T03:51:59.239Z,100579.22
2022-12-19T03:54:31.228Z,100495.81
2022-12-19T03:57:05.610Z,100579.53
2022-12-19T04:00:03.741Z,100580.59
2022-12-19T04:02:34.345Z,100573.41
2022-12-19T04:05:09.475Z,100563.97
2022-12-19T04:07:40.355Z,100547.41
2022-12-19T04:10:11.338Z,100541.00
2022-12-19T04:12:43.255Z,100583.13
2022-12-19T04:15:13.338Z,100518.22
2022-12-19T04:17:52.677Z,100538.50
2022-12-19T04:20:22.773Z,100507.91
2022-12-19T04:23:06.924Z,100519.91
2022-12-19T04:25:45.411Z,100520.19
2022-12-19T04:28:34.183Z,100510.69
2022-12-19T04:31:02.225Z,100508.13
2022-12-19T04:33:29.021Z,100475.34
2022-12-19T04:35:55.906Z,100492.03
2022-12-19T04:38:22.739Z,100503.09
2022-12-19T04:40:49.625Z,100508.22
2022-12-19T04:43:16.507Z,100545.94
2022-12-19T04:45:43.300Z,100510.56
2022-12-19T04:48:10.776Z,100480.09
2022-12-19T04:50:37.787Z,100527.00
2022-12-19T04:53:06.062Z,100518.56
2022-12-19T04:55:32.864Z,100523.16
2022-12-19T04:58:02.919Z,100546.31
2022-12-19T05:00:29.673Z,100551.81
2022-12-19T05:02:56.528Z,100544.66
2022-12-19T05:05:23.510Z,100521.22
2022-12-19T05:07:51.376Z,100562.19
2022-12-19T05:10:18.332Z,100558.00
2022-12-19T05:12:45.150Z,100541.75
2022-12-19T05:15:12.014Z,100544.47
2022-12-19T05:17:38.710Z,100541.94
2022-12-19T05:20:06.347Z,100550.59
2022-12-19T05:22:33.061Z,100490.47
2022-12-19T05:24:59.748Z,100537.38
2022-12-19T05:27:26.585Z,100570.75
2022-12-19T05:29:53.332Z,100544.75
2022-12-19T05:32:20.143Z,100530.81
2022-12-19T05:34:46.920Z,100507.31
2022-12-19T05:37:13.647Z,100547.16
2022-12-19T05:39:40.349Z,100550.31
2022-12-19T05:42:12.053Z,100531.53
2022-12-19T05:44:39.180Z,100539.06
2022-12-19T05:47:05.965Z,100509.25
2022-12-19T05:49:32.891Z,100540.72
2022-12-19T05:51:59.612Z,100534.97
2022-12-19T05:54:26.569Z,100552.50
2022-12-19T05:56:53.348Z,100584.31
2022-12-19T05:59:20.189Z,100557.50
2022-12-19T06:01:46.967Z,100549.91
2022-12-19T06:04:13.763Z,100531.34
2022-12-19T06:06:40.684Z,100555.19
2022-12-19T06:09:07.428Z,100554.16
2022-12-19T06:11:34.160Z,100542.81
2022-12-19T06:14:01.002Z,100545.50
2022-12-19T06:16:27.754Z,100563.00
2022-12-19T06:18:54.585Z,100507.84
2022-12-19T06:21:22.967Z,100524.63
2022-12-19T06:23:49.709Z,100529.22
2022-12-19T06:26:20.318Z,100532.16
2022-12-19T06:28:49.115Z,100537.19
2022-12-19T06:31:16.788Z,100541.03
2022-12-19T06:33:43.791Z,100522.44
2022-12-19T06:36:16.983Z,100521.38
2022-12-19T06:38:43.816Z,100530.44
2022-12-19T06:41:30.284Z,100515.28
2022-12-19T06:44:05.884Z,100492.34
2022-12-19T06:46:33.348Z,100518.59
2022-12-19T06:49:00.386Z,100531.03
2022-12-19T06:51:27.121Z,100530.41
2022-12-19T06:53:54.218Z,100527.59
2022-12-19T06:56:21.411Z,100506.34
2022-12-19T06:58:48.952Z,100520.53
2022-12-19T07:01:53.894Z,100519.38
2022-12-19T07:04:27.128Z,100530.28
2022-12-19T07:06:54.646Z,100527.16
2022-12-19T07:09:22.271Z,100542.47
2022-12-19T07:11:48.970Z,100533.94
2022-12-19T07:14:15.776Z,100526.69
2022-12-19T07:16:42.948Z,100524.78
2022-12-19T07:19:10.155Z,100530.53
2022-12-19T07:21:38.722Z,100523.47
2022-12-19T07:24:07.535Z,100525.94
2022-12-19T07:26:35.566Z,100505.06
2022-12-19T07:29:03.132Z,100521.34
2022-12-19T07:31:29.992Z,100525.69
2022-12-19T07:33:59.168Z,100534.97
2022-12-19T07:36:26.496Z,100526.97
2022-12-19T07:38:53.243Z,100505.00
2022-12-19T07:41:20.005Z,100517.28
2022-12-19T07:43:47.504Z,100501.31
2022-12-19T07:46:14.376Z,100480.38
2022-12-19T07:48:41.130Z,100532.88
2022-12-19T07:51:08.064Z,100493.19
2022-12-19T07:53:34.821Z,100537.38
2022-12-19T07:56:01.566Z,100511.91
2022-12-19T07:58:28.323Z,100526.13
2022-12-19T08:01:00.973Z,100504.41
2022-12-19T08:03:28.788Z,100520.03
2022-12-19T08:06:03.368Z,100506.47
2022-12-19T08:08:30.882Z,100514.81
2022-12-19T08:11:10.373Z,100473.38
2022-12-19T08:13:42.027Z,100512.38
2022-12-19T08:16:13.025Z,100516.34
2022-12-19T08:18:40.679Z,100530.94
2022-12-19T08:21:08.737Z,100498.06
2022-12-19T08:23:35.785Z,100514.31
2022-12-19T08:26:08.269Z,100492.81
2022-12-19T08:28:37.177Z,100500.78
2022-12-19T08:31:12.627Z,100479.75
2022-12-19T08:33:39.794Z,100486.56
2022-12-19T08:36:13.958Z,100510.41
2022-12-19T08:38:41.292Z,100508.78
2022-12-19T08:41:08.897Z,100515.53
2022-12-19T08:43:36.026Z,100525.34
2022-12-19T08:46:02.893Z,100501.75
2022-12-19T08:48:30.939Z,100521.38
2022-12-19T08:51:02.791Z,100530.13
2022-12-19T08:53:31.693Z,100531.63
2022-12-19T08:56:04.779Z,100541.09
2022-12-19T08:58:31.541Z,100538.38
2022-12-19T09:01:05.509Z,100582.19
2022-12-19T09:03:46.214Z,100575.44
2022-12-19T09:06:20.194Z,100570.09
2022-12-19T09:08:47.155Z,100553.19
2022-12-19T09:11:16.727Z,100583.66
2022-12-19T09:13:44.155Z,100583.44
2022-12-19T09:16:20.453Z,100565.56
2022-12-19T09:18:49.633Z,100584.69
2022-12-19T09:21:18.036Z,100567.19
2022-12-19T09:23:49.149Z,100541.69
2022-12-19T09:26:17.106Z,100584.84
2022-12-19T09:28:46.240Z,100610.75
2022-12-19T09:31:16.562Z,100607.50
2022-12-19T09:33:44.229Z,100617.00
2022-12-19T09:36:15.963Z,100620.78
2022-12-19T09:38:43.389Z,100615.13
2022-12-19T09:41:29.430Z,100626.47
2022-12-19T09:44:32.074Z,100638.59
2022-12-19T09:47:13.579Z,100639.94
2022-12-19T09:49:43.588Z,100637.44
2022-12-19T09:52:16.924Z,100635.19
2022-12-19T09:54:51.623Z,100641.84
2022-12-19T09:57:21.076Z,100637.25
2022-12-19T09:59:59.549Z,100554.16
2022-12-19T10:02:26.502Z,100653.84
2022-12-19T10:05:35.484Z,100658.66
2022-12-19T10:08:07.737Z,100661.47
2022-12-19T10:12:37.401Z,100677.97
2022-12-19T10:14:24.643Z,100659.56
2022-12-19T10:17:23.815Z,100678.44
2022-12-19T10:19:55.976Z,100677.38
2022-12-19T10:22:44.734Z,100647.41
2022-12-19T10:25:36.681Z,100664.38
2022-12-19T10:28:42.208Z,100645.81
2022-12-19T10:31:34.340Z,100647.78
2022-12-19T10:34:16.493Z,100650.22
2022-12-19T10:37:23.224Z,100636.44
2022-12-19T10:39:59.403Z,100627.88
2022-12-19T10:42:46.613Z,100654.47
2022-12-19T10:45:16.160Z,100650.75
2022-12-19T10:47:42.934Z,100637.00
2022-12-19T10:50:14.383Z,100642.44
2022-12-19T10:53:03.833Z,100644.56
2022-12-19T10:55:50.721Z,100645.78
2022-12-19T10:58:25.870Z,100632.66
2022-12-19T11:01:16.590Z,100605.22
2022-12-19T11:03:48.285Z,100616.81
2022-12-19T11:06:43.704Z,100620.13
2022-12-19T11:09:19.468Z,100626.88
2022-12-19T11:16:09.521Z,100619.94
2022-12-19T11:19:27.532Z,100648.09
2022-12-19T11:24:19.100Z,100581.16
2022-12-19T11:29:34.915Z,100597.00
2022-12-19T11:29:55.166Z,100595.75
2022-12-19T11:30:35.458Z,100562.69
2022-12-19T11:32:41.865Z,100564.31
2022-12-19T11:35:25.248Z,100540.03
2022-12-19T11:38:06.050Z,100554.63
2022-12-19T11:40:55.638Z,100512.88
2022-12-19T11:43:47.731Z,100530.03
2022-12-19T11:46:53.232Z,100551.88
2022-12-19T11:49:43.297Z,100549.59
2022-12-19T11:52:54.111Z,100572.66
2022-12-19T11:55:17.951Z,100555.41
2022-12-19T11:57:46.099Z,100562.91
2022-12-19T12:00:24.602Z,100528.78
2022-12-19T12:02:57.935Z,100544.72
2022-12-19T12:05:45.047Z,100535.97
2022-12-19T12:11:13.838Z,100481.00
2022-12-19T12:18:28.157Z,100478.06
2022-12-19T12:22:00.704Z,100504.03
2022-12-19T12:26:48.945Z,100448.72
2022-12-19T12:31:04.716Z,100470.75
2022-12-19T12:31:22.909Z,100471.56
2022-12-19T12:32:00.975Z,100476.63
2022-12-19T12:32:03.741Z,100536.59
2022-12-19T12:35:51.086Z,100473.41
2022-12-19T12:39:34.371Z,100422.13
2022-12-19T12:42:37.960Z,100439.72
2022-12-19T12:45:23.498Z,100475.03
2022-12-19T12:47:52.897Z,100439.19
2022-12-19T12:50:22.971Z,100487.41
2022-12-19T12:52:51.495Z,100472.03
2022-12-19T12:55:25.346Z,100470.75
2022-12-19T12:57:52.395Z,100479.69
2022-12-19T13:00:32.217Z,100453.03
2022-12-19T13:03:11.603Z,100475.22
2022-12-19T13:05:47.732Z,100463.28
2022-12-19T13:08:36.500Z,100436.03
2022-12-19T13:12:13.517Z,100413.47
2022-12-19T13:14:40.796Z,100475.41
2022-12-19T13:17:12.281Z,100406.91
